Felker Army Air Field
KFAF : now visible

Airfield :











YOU CAN JOIN US ON...

 
LOGIN :

Register | Disclaimer

   EN    FR    IT 

 









Legend :    VFR   Marginal VFR   IFR   Intensive IFR   Very Intensive IFR
Visi :
Ceiling :
>= 8 km
>= 3000ft
5 to 8 km
1000 to 3000 ft
1500m to 5 km
500 to 1000 ft
800 to 1500m
200 to 500 ft
< 800m
< 200 ft
Symbols :   Thunderstorms  Fog  Heavy snow  Heavy precipitations  Wind > 20 kt






- Airport Elevation : 12 ft


KFAF - Felker Army Air Field

CURRENT METAR :
  • 271855Z AUTO 17011G15KT 10SM BKN014 BKN026 17/16 A2960 RMK AO2 CIG 014V026 BKN014 V SCT PRESFR SLP027 T01680155 $

EXPIRED METARs :
  • 271825Z AUTO 15009KT 10SM BKN014 16/15 A2963 RMK AO2 CIG 012V035 PRESFR SLP037 $
  • 271810Z AUTO 15011KT 10SM BKN012 BKN036 15/14 A2965 RMK AO2 CIG 010V015 PRESFR SLP044 $
  • 271755Z AUTO 16009KT 10SM BKN008 OVC036 15/14 A2967 RMK AO2 RAE44 SLP051 P0000 60011 T01470136 10147 20099 57061 $
  • 271725Z AUTO 14007KT 6SM -RA BR OVC006 14/13 A2971 RMK AO2 CIG 006V008 PRESFR SLP064 $
  • 271655Z AUTO 16005KT 4SM RA BR SCT008 SCT019 OVC027 13/12 A2975 RMK AO2 OVC V BKN PRESFR SLP078 P0004 T01310118 $
  • 271555Z AUTO 16008KT 10SM -RA FEW022 OVC035 12/11 A2981 RMK AO2 SLP098 P0004 T01210105 $

Expired Forecast.
KZDC FIR / North America



MET'MAP, your aeronautical weather chart ! - Copyright ORBIFLY December 2007 - Disclaimer

ORBIFLY MET'MAP TEAM :

Programming & Development : Alexandra Zaïnal
Original concept : Baudouin d'Aumeries
Technical & hardware support : Manuel Goepfert
Assistance : Marc-Olivier Méhu




SOURCES & CREDITS :

   NOAA       Earth
Advisory